Huntsville, Alabama
Current Conditions -  °F | °C
As of 12:53 PM on Friday 24 Oct 2014 (Local Time) from KHSV Reporting Station
Few Clouds Few Clouds  
Wind Chill: 72°   Ceiling: Unl
Heat Index: 72°   Visibility: 10mi
Dew Point: 41°   Wind: 8mph
Humidity: 33%   Direction: 30°NNE
Pressure: 30.09"   Gusts: NA
Location:  34.73°N, 86.58°W
Report Text: KHSV 241753Z 03007KT 300V040 10SM FEW250 22/05 A3009 RMK AO2 SLP184 T02220050 10222 20094 57015
Loading
Personal Weather Stations






























Interactive Weather Map New forecast layout! Learn more

10-Day Weather Forecast

Advertisements
Track Severe Weather on mobile